Terminal Aerodrome Forecast
Issued by NWS Greer, SC

Home | Current Version | Previous Version | Text Only | Print | Product List | Glossary On
Versions: 1 2 3 4 5 6 7 8 9 10 11 12 13 14 15
000
FTUS42 KGSP 010520
TAFGSP
TAF
KGSP 010520Z 0106/0206 23004KT P6SM SCT060
      TEMPO 0106/0108 22009KT FEW080
     FM011700 24008KT P6SM SCT060
     FM011900 24010G18KT P6SM BKN060 PROB30 0119/0123 4SM TSRA
      BKN040CB
     FM020000 26008KT P6SM BKN060
     FM020300 25004KT P6SM BKN060=

USA.gov is the U.S. government's official web portal to all federal, state and local government web resources and services.